Index of /c.falco/mame/ubuntu/pool/main/m/mame

[ICO]NameLast modifiedSizeDescription

[PARENTDIR]Parent Directory  -  
[   ]mame-data_0.189+dfsg.1-0ubuntu1~ppa1~xenial1_all.deb2017-09-17 10:04 9.1M 
[   ]mame-data_0.251+dfsg.1-0ubuntu1~ppa1~bionic1_all.deb2023-01-02 08:11 15M 
[   ]mame-data_0.256+dfsg.1-0ubuntu1~ppa1~kinetic1_all.deb2023-07-01 11:31 15M 
[   ]mame-data_0.261+dfsg.1-0ubuntu1~ppa1~lunar1_all.deb2023-12-31 12:56 16M 
[   ]mame-data_0.264+dfsg.1-0ubuntu1~ppa1~focal1_all.deb2024-04-01 11:39 16M 
[   ]mame-data_0.266+dfsg.1-0ubuntu1~ppa1~jammy1_all.deb2024-06-08 15:44 16M 
[   ]mame-data_0.266+dfsg.1-0ubuntu1~ppa1~mantic1_all.deb2024-06-08 15:44 16M 
[   ]mame-data_0.266+dfsg.1-0ubuntu1~ppa1~noble1_all.deb2024-06-08 15:44 16M 
[   ]mame-doc_0.189+dfsg.1-0ubuntu1~ppa1~xenial1_all.deb2017-09-17 10:04 551K 
[   ]mame-doc_0.251+dfsg.1-0ubuntu1~ppa1~bionic1_all.deb2023-01-02 08:11 2.9M 
[   ]mame-doc_0.256+dfsg.1-0ubuntu1~ppa1~kinetic1_all.deb2023-07-01 11:31 2.9M 
[   ]mame-doc_0.261+dfsg.1-0ubuntu1~ppa1~lunar1_all.deb2023-12-31 12:56 2.8M 
[   ]mame-doc_0.264+dfsg.1-0ubuntu1~ppa1~focal1_all.deb2024-04-01 11:39 2.9M 
[   ]mame-doc_0.266+dfsg.1-0ubuntu1~ppa1~jammy1_all.deb2024-06-08 15:44 2.9M 
[   ]mame-doc_0.266+dfsg.1-0ubuntu1~ppa1~mantic1_all.deb2024-06-08 15:44 2.9M 
[   ]mame-doc_0.266+dfsg.1-0ubuntu1~ppa1~noble1_all.deb2024-06-08 15:44 2.9M 
[   ]mame-tools_0.189+dfsg.1-0ubuntu1~ppa1~xenial1_amd64.deb2017-09-17 10:04 893K 
[   ]mame-tools_0.189+dfsg.1-0ubuntu1~ppa1~xenial1_arm64.deb2017-09-17 10:04 742K 
[   ]mame-tools_0.189+dfsg.1-0ubuntu1~ppa1~xenial1_armhf.deb2017-09-17 10:04 733K 
[   ]mame-tools_0.189+dfsg.1-0ubuntu1~ppa1~xenial1_i386.deb2017-09-17 10:04 950K 
[   ]mame-tools_0.189+dfsg.1-0ubuntu1~ppa1~xenial1_ppc64el.deb2017-09-17 10:04 895K 
[   ]mame-tools_0.251+dfsg.1-0ubuntu1~ppa1~bionic1_amd64.deb2023-01-02 08:11 1.2M 
[   ]mame-tools_0.251+dfsg.1-0ubuntu1~ppa1~bionic1_arm64.deb2023-01-02 08:11 1.1M 
[   ]mame-tools_0.251+dfsg.1-0ubuntu1~ppa1~bionic1_armhf.deb2023-01-02 08:11 1.0M 
[   ]mame-tools_0.251+dfsg.1-0ubuntu1~ppa1~bionic1_i386.deb2023-01-02 08:11 1.3M 
[   ]mame-tools_0.256+dfsg.1-0ubuntu1~ppa1~kinetic1_amd64.deb2023-07-01 11:31 1.2M 
[   ]mame-tools_0.256+dfsg.1-0ubuntu1~ppa1~kinetic1_arm64.deb2023-07-01 11:31 1.1M 
[   ]mame-tools_0.256+dfsg.1-0ubuntu1~ppa1~kinetic1_armhf.deb2023-07-01 11:31 1.0M 
[   ]mame-tools_0.261+dfsg.1-0ubuntu1~ppa1~lunar1_amd64.deb2023-12-31 12:56 956K 
[   ]mame-tools_0.261+dfsg.1-0ubuntu1~ppa1~lunar1_arm64.deb2023-12-31 12:56 869K 
[   ]mame-tools_0.261+dfsg.1-0ubuntu1~ppa1~lunar1_armhf.deb2023-12-31 12:56 798K 
[   ]mame-tools_0.264+dfsg.1-0ubuntu1~ppa1~focal1_amd64.deb2024-04-01 11:39 1.3M 
[   ]mame-tools_0.264+dfsg.1-0ubuntu1~ppa1~focal1_arm64.deb2024-04-01 11:39 1.2M 
[   ]mame-tools_0.264+dfsg.1-0ubuntu1~ppa1~focal1_armhf.deb2024-04-01 11:39 1.1M 
[   ]mame-tools_0.266+dfsg.1-0ubuntu1~ppa1~jammy1_amd64.deb2024-06-08 15:44 1.6M 
[   ]mame-tools_0.266+dfsg.1-0ubuntu1~ppa1~jammy1_arm64.deb2024-06-08 15:44 1.4M 
[   ]mame-tools_0.266+dfsg.1-0ubuntu1~ppa1~jammy1_armhf.deb2024-06-08 15:44 1.3M 
[   ]mame-tools_0.266+dfsg.1-0ubuntu1~ppa1~mantic1_amd64.deb2024-06-08 15:44 1.6M 
[   ]mame-tools_0.266+dfsg.1-0ubuntu1~ppa1~mantic1_arm64.deb2024-06-08 15:44 1.5M 
[   ]mame-tools_0.266+dfsg.1-0ubuntu1~ppa1~mantic1_armhf.deb2024-06-08 15:44 1.3M 
[   ]mame-tools_0.266+dfsg.1-0ubuntu1~ppa1~noble1_amd64.deb2024-06-08 15:44 1.6M 
[   ]mame-tools_0.266+dfsg.1-0ubuntu1~ppa1~noble1_arm64.deb2024-06-08 15:44 1.5M 
[   ]mame-tools_0.266+dfsg.1-0ubuntu1~ppa1~noble1_armhf.deb2024-06-08 15:44 1.3M 
[   ]mame_0.189+dfsg.1-0ubuntu1~ppa1~xenial1.debian.tar.xz2017-09-17 10:04 66K 
[   ]mame_0.189+dfsg.1-0ubuntu1~ppa1~xenial1.dsc2017-09-17 10:04 2.5K 
[   ]mame_0.189+dfsg.1-0ubuntu1~ppa1~xenial1_amd64.deb2017-09-17 10:04 44M 
[   ]mame_0.189+dfsg.1-0ubuntu1~ppa1~xenial1_arm64.deb2017-09-17 10:04 41M 
[   ]mame_0.189+dfsg.1-0ubuntu1~ppa1~xenial1_armhf.deb2017-09-17 10:04 40M 
[   ]mame_0.189+dfsg.1-0ubuntu1~ppa1~xenial1_i386.deb2017-09-17 10:04 45M 
[   ]mame_0.189+dfsg.1-0ubuntu1~ppa1~xenial1_ppc64el.deb2017-09-17 10:04 42M 
[   ]mame_0.189+dfsg.1.orig.tar.xz2017-09-17 10:04 73M 
[   ]mame_0.251+dfsg.1-0ubuntu1~ppa1~bionic1.debian.tar.xz2023-01-02 08:11 68K 
[   ]mame_0.251+dfsg.1-0ubuntu1~ppa1~bionic1.dsc2023-01-02 08:11 2.5K 
[   ]mame_0.251+dfsg.1-0ubuntu1~ppa1~bionic1_amd64.deb2023-01-02 08:11 63M 
[   ]mame_0.251+dfsg.1-0ubuntu1~ppa1~bionic1_arm64.deb2023-01-02 08:11 57M 
[   ]mame_0.251+dfsg.1-0ubuntu1~ppa1~bionic1_armhf.deb2023-01-02 08:11 57M 
[   ]mame_0.251+dfsg.1-0ubuntu1~ppa1~bionic1_i386.deb2023-01-02 08:11 61M 
[   ]mame_0.251+dfsg.1.orig.tar.xz2023-01-02 08:11 131M 
[   ]mame_0.256+dfsg.1-0ubuntu1~ppa1~kinetic1.debian.tar.xz2023-07-01 11:31 70K 
[   ]mame_0.256+dfsg.1-0ubuntu1~ppa1~kinetic1.dsc2023-07-01 11:31 2.5K 
[   ]mame_0.256+dfsg.1-0ubuntu1~ppa1~kinetic1_amd64.deb2023-07-01 11:31 76M 
[   ]mame_0.256+dfsg.1-0ubuntu1~ppa1~kinetic1_arm64.deb2023-07-01 11:31 70M 
[   ]mame_0.256+dfsg.1-0ubuntu1~ppa1~kinetic1_armhf.deb2023-07-01 11:31 66M 
[   ]mame_0.256+dfsg.1.orig.tar.xz2023-07-01 11:31 147M 
[   ]mame_0.261+dfsg.1-0ubuntu1~ppa1~lunar1.debian.tar.xz2023-12-31 12:56 70K 
[   ]mame_0.261+dfsg.1-0ubuntu1~ppa1~lunar1.dsc2023-12-31 12:56 2.5K 
[   ]mame_0.261+dfsg.1-0ubuntu1~ppa1~lunar1_amd64.deb2023-12-31 12:56 76M 
[   ]mame_0.261+dfsg.1-0ubuntu1~ppa1~lunar1_arm64.deb2023-12-31 12:56 70M 
[   ]mame_0.261+dfsg.1-0ubuntu1~ppa1~lunar1_armhf.deb2023-12-31 12:56 67M 
[   ]mame_0.261+dfsg.1.orig.tar.xz2023-12-31 12:56 147M 
[   ]mame_0.264+dfsg.1-0ubuntu1~ppa1~focal1.debian.tar.xz2024-04-01 11:39 69K 
[   ]mame_0.264+dfsg.1-0ubuntu1~ppa1~focal1.dsc2024-04-01 11:39 2.5K 
[   ]mame_0.264+dfsg.1-0ubuntu1~ppa1~focal1_amd64.deb2024-04-01 11:39 69M 
[   ]mame_0.264+dfsg.1-0ubuntu1~ppa1~focal1_arm64.deb2024-04-01 11:39 60M 
[   ]mame_0.264+dfsg.1-0ubuntu1~ppa1~focal1_armhf.deb2024-04-01 11:39 62M 
[   ]mame_0.264+dfsg.1.orig.tar.xz2024-04-01 11:39 148M 
[   ]mame_0.266+dfsg.1-0ubuntu1~ppa1~jammy1.debian.tar.xz2024-06-08 15:44 69K 
[   ]mame_0.266+dfsg.1-0ubuntu1~ppa1~jammy1.dsc2024-06-08 15:44 2.5K 
[   ]mame_0.266+dfsg.1-0ubuntu1~ppa1~jammy1_amd64.deb2024-06-08 15:44 77M 
[   ]mame_0.266+dfsg.1-0ubuntu1~ppa1~jammy1_arm64.deb2024-06-08 15:44 72M 
[   ]mame_0.266+dfsg.1-0ubuntu1~ppa1~jammy1_armhf.deb2024-06-08 15:44 69M 
[   ]mame_0.266+dfsg.1-0ubuntu1~ppa1~mantic1.debian.tar.xz2024-06-08 15:44 69K 
[   ]mame_0.266+dfsg.1-0ubuntu1~ppa1~mantic1.dsc2024-06-08 15:44 2.5K 
[   ]mame_0.266+dfsg.1-0ubuntu1~ppa1~mantic1_amd64.deb2024-06-08 15:44 78M 
[   ]mame_0.266+dfsg.1-0ubuntu1~ppa1~mantic1_arm64.deb2024-06-08 15:44 72M 
[   ]mame_0.266+dfsg.1-0ubuntu1~ppa1~mantic1_armhf.deb2024-06-08 15:44 71M 
[   ]mame_0.266+dfsg.1-0ubuntu1~ppa1~noble1.debian.tar.xz2024-06-08 15:44 70K 
[   ]mame_0.266+dfsg.1-0ubuntu1~ppa1~noble1.dsc2024-06-08 15:44 2.5K 
[   ]mame_0.266+dfsg.1-0ubuntu1~ppa1~noble1_amd64.deb2024-06-08 15:44 77M 
[   ]mame_0.266+dfsg.1-0ubuntu1~ppa1~noble1_arm64.deb2024-06-08 15:44 73M 
[   ]mame_0.266+dfsg.1-0ubuntu1~ppa1~noble1_armhf.deb2024-06-08 15:44 71M 
[   ]mame_0.266+dfsg.1.orig.tar.xz2024-06-08 15:44 149M 
[   ]mess_0.189+dfsg.1-0ubuntu1~ppa1~xenial1_all.deb2017-09-17 10:04 22K